Time;durP1;ratioP1;P1;durP2;ratioP2;P2;SDS_P1;SDS_P2;PMS_P1;PMS_P2;Temp;Humidity;BMP_temperature;BMP_pressure;BME280_temperature;BME280_humidity;BME280_pressure;Samples;Min_cycle;Max_cycle;Signal;HPM_P1;HPM_P2
2023/07/11 00:00:51;;;;;;;4.30;1.50;;;;;;;25.03;43.40;101403.96;107041;1257;25497;-47
2023/07/11 00:03:18;;;;;;;2.90;1.30;;;;;;;25.00;43.34;101397.77;107023;1253;25356;-47
2023/07/11 00:06:05;;;;;;;1.70;1.20;;;;;;;24.97;43.02;101392.31;107205;1264;25415;-47
2023/07/11 00:08:33;;;;;;;2.70;1.50;;;;;;;24.96;42.80;101396.44;107053;1263;22581;-47
2023/07/11 00:11:00;;;;;;;1.80;1.50;;;;;;;24.95;43.59;101391.92;107063;1264;25376;-47
2023/07/11 00:13:27;;;;;;;2.80;1.40;;;;;;;24.93;43.87;101387.77;106873;1270;25477;-47
2023/07/11 00:15:59;;;;;;;3.40;1.80;;;;;;;24.92;44.26;101395.16;107129;1263;25325;-47
2023/07/11 00:18:28;;;;;;;2.20;1.60;;;;;;;24.91;44.64;101396.13;106903;1260;22583;-47
2023/07/11 00:20:55;;;;;;;3.70;1.40;;;;;;;24.89;44.79;101396.09;106968;1267;25332;-47
2023/07/11 00:23:23;;;;;;;2.40;1.60;;;;;;;24.87;44.71;101395.16;107177;1266;25488;-48
2023/07/11 00:25:50;;;;;;;2.00;1.80;;;;;;;24.83;44.23;101397.18;107018;1257;25306;-48
2023/07/11 00:28:18;;;;;;;2.60;1.80;;;;;;;24.80;44.19;101395.13;107065;1267;25488;-48
2023/07/11 00:30:48;;;;;;;1.60;1.50;;;;;;;24.78;44.51;101395.77;107184;1263;25341;-48
2023/07/11 00:33:15;;;;;;;3.30;1.70;;;;;;;24.79;44.74;101393.80;107111;1263;25351;-48
2023/07/11 00:35:50;;;;;;;2.20;1.50;;;;;;;24.79;45.08;101390.90;107091;1264;25369;-48
2023/07/11 00:38:17;;;;;;;4.90;1.90;;;;;;;24.81;45.34;101386.20;106980;1263;22525;-48
2023/07/11 00:40:46;;;;;;;2.10;1.60;;;;;;;24.82;44.99;101386.11;106925;1264;25369;-48
2023/07/11 00:43:14;;;;;;;2.40;1.80;;;;;;;24.82;44.69;101382.92;106913;1258;25376;-48
2023/07/11 00:46:04;;;;;;;3.10;1.40;;;;;;;24.80;44.48;101382.88;106869;1251;22546;-48
2023/07/11 00:48:34;;;;;;;4.50;1.60;;;;;;;24.79;44.45;101379.23;107049;1264;25484;-48
2023/07/11 00:51:01;;;;;;;2.80;1.80;;;;;;;24.78;44.55;101377.37;107102;1260;25256;-48
2023/07/11 00:53:28;;;;;;;1.70;1.40;;;;;;;24.76;44.65;101373.58;106998;1264;22531;-48
2023/07/11 00:55:57;;;;;;;4.30;1.80;;;;;;;24.73;44.41;101370.05;107041;1260;22986;-48
2023/07/11 00:58:24;;;;;;;5.30;2.40;;;;;;;24.69;44.41;101372.15;107023;1260;25453;-48
2023/07/11 01:00:51;;;;;;;2.40;1.90;;;;;;;24.64;44.52;101369.83;107127;1264;25428;-47
2023/07/11 01:03:21;;;;;;;4.00;1.80;;;;;;;24.58;44.45;101365.43;106793;1267;25363;-48
2023/07/11 01:05:48;;;;;;;4.20;2.00;;;;;;;24.52;44.46;101366.27;106868;1265;25364;-48
2023/07/11 01:08:16;;;;;;;2.40;1.90;;;;;;;24.46;44.29;101366.16;106438;1275;25354;-47
2023/07/11 01:10:43;;;;;;;4.30;2.00;;;;;;;24.42;44.30;101362.91;106802;1276;23347;-48
2023/07/11 01:13:10;;;;;;;1.90;1.80;;;;;;;24.38;44.27;101370.42;106814;1262;25422;-48
2023/07/11 01:15:38;;;;;;;2.40;1.60;;;;;;;24.30;44.50;101374.34;106799;1254;25577;-48
2023/07/11 01:18:05;;;;;;;3.20;2.20;;;;;;;24.22;44.38;101378.42;106801;1269;25385;-48
2023/07/11 01:20:33;;;;;;;1.90;1.80;;;;;;;24.15;44.43;101382.63;106781;1267;25400;-49
2023/07/11 01:23:01;;;;;;;3.40;1.80;;;;;;;24.08;44.48;101391.46;106820;1267;25365;-48
2023/07/11 01:25:29;;;;;;;5.00;1.90;;;;;;;24.04;44.54;101397.89;106823;1270;22820;-48
2023/07/11 01:27:55;;;;;;;3.00;1.90;;;;;;;23.98;44.78;101396.55;106893;1262;25773;-48
2023/07/11 01:30:24;;;;;;;3.80;1.90;;;;;;;23.91;44.91;101396.52;106859;1269;25597;-48
2023/07/11 01:32:52;;;;;;;3.30;2.30;;;;;;;23.83;45.20;101397.36;106873;1267;23870;-47
2023/07/11 01:35:19;;;;;;;2.70;1.90;;;;;;;23.76;45.56;101399.59;107099;1264;26631;-48
2023/07/11 01:37:46;;;;;;;1.80;1.70;;;;;;;23.68;45.68;101398.73;107009;1258;24208;-48
2023/07/11 01:40:13;;;;;;;5.90;1.90;;;;;;;23.62;45.95;101406.91;107133;1264;25417;-48
2023/07/11 01:42:40;;;;;;;3.80;2.00;;;;;;;23.57;45.98;101406.38;107202;1251;25399;-47
2023/07/11 01:45:09;;;;;;;2.90;1.80;;;;;;;23.52;46.33;101394.48;107138;1260;25350;-48
2023/07/11 01:47:36;;;;;;;5.30;2.10;;;;;;;23.48;46.83;101406.30;106945;1255;22585;-48
2023/07/11 01:50:04;;;;;;;2.30;2.00;;;;;;;23.44;47.46;101414.32;106670;1270;22536;-47
2023/07/11 01:52:31;;;;;;;2.60;1.90;;;;;;;23.41;47.91;101407.11;106893;1267;25333;-48
2023/07/11 01:54:58;;;;;;;2.50;1.90;;;;;;;23.39;48.27;101403.52;106771;1257;25678;-47
2023/07/11 01:57:25;;;;;;;2.00;1.70;;;;;;;23.36;48.53;101408.65;106953;1262;25369;-48
2023/07/11 01:59:53;;;;;;;3.90;1.70;;;;;;;23.34;48.87;101407.89;106814;1264;25382;-48
2023/07/11 02:02:20;;;;;;;2.90;1.80;;;;;;;23.34;49.05;101407.91;106845;1264;25372;-47
2023/07/11 02:04:48;;;;;;;4.70;2.10;;;;;;;23.35;48.99;101411.20;106942;1267;25676;-48
2023/07/11 02:07:15;;;;;;;4.20;2.00;;;;;;;23.37;48.97;101410.86;106911;1257;25436;-48
2023/07/11 02:09:47;;;;;;;4.10;1.90;;;;;;;23.39;48.58;101407.00;106609;1260;25498;-48
2023/07/11 02:12:14;;;;;;;4.50;1.70;;;;;;;23.41;48.24;101406.54;106828;1264;25988;-48
2023/07/11 02:14:41;;;;;;;4.20;1.80;;;;;;;23.41;48.02;101410.81;106664;1274;25345;-48
2023/07/11 02:17:08;;;;;;;3.00;1.60;;;;;;;23.40;47.87;101410.87;106836;1270;25428;-48
2023/07/11 02:19:36;;;;;;;2.70;2.20;;;;;;;23.38;48.04;101408.67;106875;1254;25356;-47
2023/07/11 02:22:03;;;;;;;2.00;1.90;;;;;;;23.37;48.21;101409.67;106890;1257;25393;-48
2023/07/11 02:24:31;;;;;;;5.30;2.00;;;;;;;23.34;48.37;101406.86;106826;1257;23246;-47
2023/07/11 02:26:58;;;;;;;2.40;2.00;;;;;;;23.31;48.45;101406.13;107041;1259;22651;-48
2023/07/11 02:29:25;;;;;;;4.30;1.80;;;;;;;23.28;48.58;101404.73;107129;1263;25469;-47
2023/07/11 02:31:52;;;;;;;2.40;2.10;;;;;;;23.26;48.40;101403.98;107128;1267;25377;-48
2023/07/11 02:34:19;;;;;;;2.60;1.90;;;;;;;23.23;48.27;101403.43;107010;1254;25385;-48
2023/07/11 02:36:46;;;;;;;2.70;1.90;;;;;;;23.21;48.21;101396.30;107184;1254;25386;-47
2023/07/11 02:39:13;;;;;;;2.80;1.70;;;;;;;23.22;48.34;101397.18;106920;1265;25361;-47
2023/07/11 02:41:40;;;;;;;5.90;2.10;;;;;;;23.22;48.32;101400.88;106986;1267;25497;-48
2023/07/11 02:44:07;;;;;;;3.10;2.00;;;;;;;23.22;48.32;101401.94;107130;1262;25338;-49
2023/07/11 02:46:34;;;;;;;2.40;1.80;;;;;;;23.22;48.23;101405.32;107084;1254;24341;-48
2023/07/11 02:49:02;;;;;;;2.40;1.80;;;;;;;23.21;48.10;101404.98;107167;1266;25395;-47
2023/07/11 02:51:29;;;;;;;4.20;2.40;;;;;;;23.20;48.09;101400.47;106854;1262;22534;-48
2023/07/11 02:53:56;;;;;;;5.00;2.40;;;;;;;23.19;48.22;101398.44;107059;1249;25468;-48
2023/07/11 02:56:23;;;;;;;4.60;2.10;;;;;;;23.17;48.19;101397.13;107053;1262;25392;-49
2023/07/11 02:58:50;;;;;;;3.00;2.10;;;;;;;23.16;48.02;101395.25;107056;1259;24357;-48
2023/07/11 03:01:17;;;;;;;4.00;2.10;;;;;;;23.14;47.92;101397.52;107065;1259;25429;-48
2023/07/11 03:03:45;;;;;;;4.20;1.80;;;;;;;23.11;47.92;101397.35;106728;1269;25389;-49
2023/07/11 03:06:12;;;;;;;6.00;2.20;;;;;;;23.09;47.91;101395.32;107048;1266;25351;-49
2023/07/11 03:08:39;;;;;;;3.80;2.10;;;;;;;23.07;48.04;101397.23;107082;1264;25389;-49
2023/07/11 03:11:06;;;;;;;3.40;2.00;;;;;;;23.05;48.14;101399.13;107122;1254;25469;-48
2023/07/11 03:13:36;;;;;;;2.60;2.10;;;;;;;23.03;48.27;101396.09;107117;1250;25469;-48
2023/07/11 03:16:04;;;;;;;2.70;1.90;;;;;;;23.01;48.17;101396.74;106978;1250;25363;-50
2023/07/11 03:18:31;;;;;;;3.50;2.00;;;;;;;23.01;48.21;101397.29;106870;1259;24560;-48
2023/07/11 03:21:00;;;;;;;2.20;1.90;;;;;;;22.95;48.45;101400.63;106915;1267;25396;-48
2023/07/11 03:23:27;;;;;;;2.00;1.50;;;;;;;22.93;48.39;101401.16;106050;1251;1003576;-49
2023/07/11 03:25:54;;;;;;;2.40;1.80;;;;;;;22.92;48.22;101400.15;106609;1265;25461;-49
2023/07/11 03:28:21;;;;;;;3.20;1.90;;;;;;;22.88;48.23;101396.84;106951;1259;25389;-49
2023/07/11 03:30:50;;;;;;;4.50;1.70;;;;;;;22.82;48.44;101400.23;107004;1262;25493;-49
2023/07/11 03:33:17;;;;;;;1.70;1.60;;;;;;;22.79;48.86;101402.42;107145;1254;25356;-48
2023/07/11 03:35:49;;;;;;;4.90;1.90;;;;;;;22.72;49.27;101406.71;107127;1250;24216;-49
2023/07/11 03:38:16;;;;;;;3.00;1.90;;;;;;;22.70;49.64;101408.08;107085;1250;25341;-48
2023/07/11 03:40:44;;;;;;;3.60;1.80;;;;;;;22.72;50.04;101402.84;107107;1259;25409;-49
2023/07/11 03:43:11;;;;;;;5.30;2.20;;;;;;;22.83;50.39;101404.09;107058;1262;22548;-48
2023/07/11 03:45:44;;;;;;;3.70;2.30;;;;;;;22.96;50.86;101411.78;107079;1263;25404;-49
2023/07/11 03:48:16;;;;;;;3.50;2.20;;;;;;;23.25;51.04;101416.75;107021;1259;22618;-50
2023/07/11 03:50:43;;;;;;;2.30;1.80;;;;;;;23.79;50.50;101413.97;107133;1256;25389;-50
2023/07/11 03:53:10;;;;;;;5.30;2.50;;;;;;;24.47;49.25;101405.58;107130;1267;25472;-49
2023/07/11 03:55:37;;;;;;;2.80;2.00;;;;;;;25.22;47.76;101407.02;106886;1262;25469;-50
2023/07/11 03:58:04;;;;;;;8.00;2.10;;;;;;;26.01;46.29;101403.43;107074;1259;25376;-49
2023/07/11 04:00:31;;;;;;;6.40;2.20;;;;;;;26.80;44.62;101405.80;107078;1259;25382;-49
2023/07/11 04:02:58;;;;;;;4.00;2.20;;;;;;;27.48;43.13;101409.69;107055;1263;25500;-49
2023/07/11 04:05:26;;;;;;;3.60;2.50;;;;;;;27.96;41.89;101413.70;107097;1263;25468;-49
2023/07/11 04:07:53;;;;;;;7.30;2.30;;;;;;;28.22;40.97;101410.61;107089;1264;25358;-49
2023/07/11 04:10:20;;;;;;;5.80;2.40;;;;;;;28.31;40.52;101409.66;107027;1263;25259;-49
2023/07/11 04:12:48;;;;;;;5.80;2.50;;;;;;;28.25;40.20;101409.05;107046;1259;25400;-50
2023/07/11 04:15:16;;;;;;;2.90;2.10;;;;;;;28.11;40.28;101411.23;107113;1251;25393;-49
2023/07/11 04:17:45;;;;;;;3.20;2.10;;;;;;;27.87;40.15;101409.33;107122;1254;25430;-49
2023/07/11 04:20:13;;;;;;;2.50;1.80;;;;;;;27.58;40.05;101410.88;107107;1259;25348;-50
2023/07/11 04:22:40;;;;;;;2.70;2.10;;;;;;;27.23;40.31;101410.80;107111;1262;25393;-48
2023/07/11 04:25:07;;;;;;;2.20;1.90;;;;;;;26.92;40.68;101409.98;107098;1253;25403;-49
2023/07/11 04:27:35;;;;;;;3.80;2.00;;;;;;;26.62;41.20;101406.70;106846;1266;25404;-49
2023/07/11 04:30:03;;;;;;;2.10;1.80;;;;;;;26.35;41.74;101404.71;107061;1264;25366;-49
2023/07/11 04:32:30;;;;;;;2.20;2.00;;;;;;;26.10;42.27;101400.77;106923;1266;24406;-48
2023/07/11 04:34:57;;;;;;;4.80;2.10;;;;;;;25.88;42.93;101400.84;106972;1259;25420;-49
2023/07/11 04:37:24;;;;;;;3.40;2.30;;;;;;;25.71;43.29;101403.31;106701;1269;25419;-49
2023/07/11 04:39:51;;;;;;;7.50;2.20;;;;;;;25.59;43.70;101401.08;106782;1254;25430;-48
2023/07/11 04:42:18;;;;;;;1.70;1.60;;;;;;;25.49;43.94;101405.34;106754;1257;25351;-49
2023/07/11 04:44:45;;;;;;;2.60;2.00;;;;;;;25.41;44.26;101404.20;106729;1250;25348;-49
2023/07/11 04:47:12;;;;;;;2.10;1.90;;;;;;;25.33;44.41;101405.45;106836;1266;25386;-50
2023/07/11 04:49:39;;;;;;;4.70;2.20;;;;;;;25.26;44.89;101407.22;106837;1265;25341;-49
2023/07/11 04:52:06;;;;;;;2.50;2.30;;;;;;;25.20;45.22;101410.01;107068;1259;25399;-48
2023/07/11 04:54:35;;;;;;;2.90;2.40;;;;;;;25.13;45.47;101409.98;106673;1268;25406;-48
2023/07/11 04:57:02;;;;;;;2.40;2.10;;;;;;;25.09;45.82;101413.25;106792;1262;25552;-49
2023/07/11 04:59:29;;;;;;;3.80;2.00;;;;;;;25.04;46.22;101414.48;106887;1251;25393;-48
2023/07/11 05:01:56;;;;;;;4.50;2.20;;;;;;;25.01;46.61;101417.90;106585;1266;23297;-49
2023/07/11 05:04:23;;;;;;;3.90;2.40;;;;;;;24.99;47.08;101413.24;106764;1257;23010;-49
2023/07/11 05:06:50;;;;;;;2.70;2.30;;;;;;;24.99;47.62;101412.36;106553;1266;25349;-49
2023/07/11 05:09:17;;;;;;;2.40;2.10;;;;;;;25.00;47.64;101409.13;106572;1262;25341;-49
2023/07/11 05:11:44;;;;;;;7.80;2.40;;;;;;;25.04;47.81;101408.85;106791;1262;25426;-48
2023/07/11 05:14:11;;;;;;;4.30;2.40;;;;;;;25.13;48.33;101407.45;106766;1259;25434;-49
2023/07/11 05:16:40;;;;;;;3.00;2.20;;;;;;;25.28;48.61;101412.39;106903;1254;25340;-48
2023/07/11 05:19:07;;;;;;;3.20;2.40;;;;;;;25.49;47.99;101414.06;106429;1269;25584;-50
2023/07/11 05:21:35;;;;;;;3.70;2.50;;;;;;;25.75;46.97;101415.87;106893;1254;25417;-49
2023/07/11 05:24:02;;;;;;;2.50;2.30;;;;;;;26.07;46.12;101410.80;107040;1249;25382;-50
2023/07/11 05:26:29;;;;;;;5.40;2.80;;;;;;;26.44;44.39;101414.62;106756;1266;25392;-50
2023/07/11 05:29:00;;;;;;;4.20;2.70;;;;;;;26.81;42.43;101411.73;107036;1262;25428;-49
2023/07/11 05:31:27;;;;;;;4.30;2.70;;;;;;;27.04;41.68;101415.83;107054;1257;25417;-50
2023/07/11 05:33:54;;;;;;;7.20;2.70;;;;;;;27.19;41.23;101419.52;107012;1269;25471;-50
2023/07/11 05:36:33;;;;;;;5.30;2.80;;;;;;;27.27;40.91;101423.13;106794;1266;25341;-49
2023/07/11 05:39:12;;;;;;;3.90;2.60;;;;;;;27.34;41.14;101421.48;106767;1271;25370;-49
2023/07/11 05:41:44;;;;;;;2.90;2.40;;;;;;;27.40;41.31;101422.14;107141;1267;25379;-50
2023/07/11 05:44:12;;;;;;;3.50;2.70;;;;;;;27.44;41.46;101425.95;107101;1252;25241;-49
2023/07/11 05:46:39;;;;;;;3.00;2.20;;;;;;;27.50;41.36;101422.56;107101;1262;24352;-49
2023/07/11 05:49:06;;;;;;;7.40;2.30;;;;;;;27.56;40.80;101426.89;107168;1259;22540;-48
2023/07/11 05:51:34;;;;;;;3.00;2.50;;;;;;;27.60;40.71;101422.63;107077;1256;25410;-49
2023/07/11 05:54:01;;;;;;;3.80;2.70;;;;;;;27.64;40.41;101419.25;106652;1267;25428;-49
2023/07/11 05:56:29;;;;;;;2.30;2.10;;;;;;;27.73;39.86;101416.05;106783;1258;24396;-49
2023/07/11 05:58:57;;;;;;;2.50;2.30;;;;;;;27.85;38.78;101416.75;107139;1262;25386;-49
2023/07/11 06:01:25;;;;;;;2.50;2.10;;;;;;;28.00;38.75;101422.68;107061;1263;25412;-49
2023/07/11 06:04:05;;;;;;;5.50;2.10;;;;;;;28.20;38.56;101421.30;107102;1259;25161;-50
2023/07/11 06:06:35;;;;;;;2.30;2.10;;;;;;;28.44;38.46;101420.17;106919;1265;22526;-50
2023/07/11 06:09:04;;;;;;;3.30;1.90;;;;;;;28.65;38.01;101420.83;107114;1262;25397;-50
2023/07/11 06:11:32;;;;;;;2.90;2.10;;;;;;;28.79;37.59;101418.10;107109;1263;25536;-50
2023/07/11 06:14:00;;;;;;;3.40;2.30;;;;;;;28.86;37.50;101419.27;107027;1259;25407;-48
2023/07/11 06:16:28;;;;;;;2.60;2.10;;;;;;;28.85;37.38;101414.61;106807;1265;25256;-50
2023/07/11 06:18:55;;;;;;;6.20;2.20;;;;;;;28.82;37.76;101413.45;106972;1266;25361;-49
2023/07/11 06:21:22;;;;;;;2.20;2.00;;;;;;;28.86;38.20;101411.79;107129;1262;25523;-49
2023/07/11 06:23:49;;;;;;;2.50;1.70;;;;;;;28.92;38.32;101409.75;106745;1270;25410;-50
2023/07/11 06:26:16;;;;;;;4.30;1.90;;;;;;;29.00;38.08;101410.21;107012;1256;25488;-49
2023/07/11 06:28:44;;;;;;;1.80;1.60;;;;;;;29.09;37.93;101409.27;107123;1262;25352;-49
2023/07/11 06:31:11;;;;;;;3.80;1.70;;;;;;;29.10;37.47;101409.66;107130;1262;25437;-48
2023/07/11 06:33:39;;;;;;;2.40;1.90;;;;;;;29.03;37.30;101408.90;107025;1264;22615;-49
2023/07/11 06:36:06;;;;;;;3.20;1.70;;;;;;;28.95;36.76;101411.09;107080;1262;25295;-48
2023/07/11 06:38:33;;;;;;;3.10;1.60;;;;;;;28.89;35.85;101408.41;107187;1259;25351;-49
2023/07/11 06:41:00;;;;;;;2.10;1.70;;;;;;;28.77;35.28;101405.47;107031;1262;25348;-49
2023/07/11 06:43:28;;;;;;;2.30;1.30;;;;;;;28.61;35.60;101404.17;107208;1260;25356;-50
2023/07/11 06:45:56;;;;;;;1.50;1.40;;;;;;;28.45;35.61;101402.55;107164;1254;25364;-49
2023/07/11 06:48:25;;;;;;;2.50;1.50;;;;;;;28.33;35.36;101402.00;107176;1259;22533;-49
2023/07/11 06:50:54;;;;;;;1.60;1.40;;;;;;;28.23;35.76;101403.41;107114;1249;25491;-49
2023/07/11 06:53:25;;;;;;;2.00;1.30;;;;;;;28.11;36.26;101402.64;106916;1271;22527;-49
2023/07/11 06:55:52;;;;;;;2.30;1.50;;;;;;;28.01;36.77;101403.27;107100;1254;25488;-49
2023/07/11 06:58:20;;;;;;;2.10;1.70;;;;;;;27.95;37.24;101400.24;107139;1262;25369;-48
2023/07/11 07:00:58;;;;;;;3.10;1.40;;;;;;;27.90;37.51;101399.27;107048;1262;25504;-49
2023/07/11 07:03:25;;;;;;;1.80;1.50;;;;;;;27.84;37.41;101397.02;107169;1250;25379;-48
2023/07/11 07:05:55;;;;;;;2.50;1.50;;;;;;;27.83;37.36;101396.48;107094;1268;25425;-50
2023/07/11 07:08:22;;;;;;;2.00;1.40;;;;;;;27.84;37.37;101393.16;107276;1259;25162;-50
2023/07/11 07:10:50;;;;;;;1.70;1.20;;;;;;;27.88;37.36;101394.09;107227;1259;25383;-49
2023/07/11 07:13:20;;;;;;;2.70;1.40;;;;;;;27.92;37.44;101395.69;107154;1260;25415;-49
2023/07/11 07:15:56;;;;;;;3.00;1.60;;;;;;;27.95;36.64;101394.31;107130;1250;24248;-50
2023/07/11 07:18:23;;;;;;;3.00;1.50;;;;;;;27.96;36.78;101398.07;107122;1259;22629;-50
2023/07/11 07:20:51;;;;;;;4.40;1.70;;;;;;;27.96;36.90;101398.77;107072;1254;25386;-49
2023/07/11 07:23:25;;;;;;;1.50;1.40;;;;;;;27.98;37.22;101398.40;107160;1259;22523;-48
2023/07/11 07:25:55;;;;;;;3.00;1.60;;;;;;;28.01;37.12;101393.88;107144;1269;25364;-50
2023/07/11 07:28:22;;;;;;;1.40;1.30;;;;;;;28.04;36.36;101393.75;107104;1263;24219;-49
2023/07/11 07:30:51;;;;;;;3.20;1.70;;;;;;;28.05;35.67;101397.06;107178;1259;25379;-49
2023/07/11 07:33:19;;;;;;;1.50;1.30;;;;;;;28.09;36.31;101400.11;107166;1253;23909;-50
2023/07/11 07:35:47;;;;;;;1.90;1.20;;;;;;;28.15;35.90;101398.70;106981;1262;22533;-50
2023/07/11 07:38:14;;;;;;;1.30;1.20;;;;;;;28.20;35.04;101400.96;107024;1266;25425;-50
2023/07/11 07:40:41;;;;;;;1.50;1.20;;;;;;;28.24;34.77;101399.70;106807;1271;25334;-49
2023/07/11 07:43:09;;;;;;;3.30;1.70;;;;;;;28.25;34.68;101400.02;107091;1261;25404;-50
2023/07/11 07:45:36;;;;;;;2.10;1.60;;;;;;;28.22;34.43;101399.94;107127;1266;25351;-49
2023/07/11 07:48:04;;;;;;;2.40;1.30;;;;;;;28.19;35.01;101398.91;107055;1254;25363;-49
2023/07/11 07:50:31;;;;;;;2.90;1.70;;;;;;;28.21;35.29;101403.23;107092;1262;25301;-49
2023/07/11 07:52:57;;;;;;;2.50;1.40;;;;;;;28.25;35.67;101398.55;107173;1259;22506;-51
2023/07/11 07:55:24;;;;;;;2.60;1.20;;;;;;;28.31;35.89;101393.63;107188;1259;25415;-49
2023/07/11 07:57:51;;;;;;;2.10;1.40;;;;;;;28.35;35.49;101392.02;106855;1255;25351;-49
2023/07/11 08:00:18;;;;;;;2.30;1.60;;;;;;;28.35;34.69;101390.74;107071;1262;25450;-49
2023/07/11 08:02:52;;;;;;;2.10;1.70;;;;;;;28.30;35.08;101392.23;106812;1265;24242;-49
2023/07/11 08:05:22;;;;;;;1.80;1.60;;;;;;;28.28;35.45;101397.63;107189;1266;25379;-49
2023/07/11 08:07:50;;;;;;;1.70;1.40;;;;;;;28.25;35.44;101398.71;107129;1262;25361;-49
2023/07/11 08:10:17;;;;;;;1.80;1.50;;;;;;;28.21;35.44;101396.10;107073;1256;25488;-50
2023/07/11 08:12:44;;;;;;;3.20;2.00;;;;;;;28.13;35.83;101394.05;107151;1258;25376;-49
2023/07/11 08:15:12;;;;;;;3.10;1.50;;;;;;;28.07;36.00;101388.86;106953;1263;25404;-51
2023/07/11 08:17:45;;;;;;;2.20;1.30;;;;;;;28.01;36.44;101387.08;107107;1254;25348;-49
2023/07/11 08:20:13;;;;;;;1.60;1.30;;;;;;;27.97;36.91;101387.45;107016;1262;25428;-49
2023/07/11 08:22:42;;;;;;;4.30;1.40;;;;;;;27.92;37.12;101390.50;107446;1250;23932;-49
2023/07/11 08:25:09;;;;;;;2.20;1.60;;;;;;;27.90;37.44;101388.15;107333;1255;25501;-49
2023/07/11 08:27:36;;;;;;;2.50;1.60;;;;;;;27.90;37.75;101390.14;107240;1258;23888;-49
2023/07/11 08:30:04;;;;;;;1.50;1.40;;;;;;;27.91;37.68;101388.30;106904;1256;23320;-50
2023/07/11 08:32:32;;;;;;;1.60;1.50;;;;;;;27.93;37.38;101388.81;106869;1257;25361;-50
2023/07/11 08:34:59;;;;;;;2.70;1.40;;;;;;;27.96;37.47;101383.41;107068;1255;24255;-50
2023/07/11 08:37:26;;;;;;;2.40;1.30;;;;;;;27.99;37.53;101379.09;106813;1252;25351;-49
2023/07/11 08:39:53;;;;;;;1.90;1.50;;;;;;;28.03;37.79;101378.88;107114;1251;23061;-49
2023/07/11 08:42:34;;;;;;;2.30;1.40;;;;;;;28.05;37.45;101377.96;107177;1260;25571;-50
2023/07/11 08:45:23;;;;;;;1.80;1.70;;;;;;;28.05;37.00;101379.61;107275;1255;22531;-49
2023/07/11 08:48:27;;;;;;;3.00;1.50;;;;;;;28.05;36.94;101379.81;107254;1262;23186;-50
2023/07/11 08:51:16;;;;;;;2.70;1.40;;;;;;;28.04;37.31;101380.19;106844;1260;22869;-49
2023/07/11 08:53:48;;;;;;;1.50;1.40;;;;;;;28.04;37.39;101383.02;106739;1267;25466;-51
2023/07/11 08:56:14;;;;;;;;;;;;;;;28.06;37.28;101378.46;107889;1253;24212;-50
2023/07/11 08:58:41;;;;;;;2.60;1.30;;;;;;;28.06;37.71;101378.39;107176;1262;25559;-50
2023/07/11 09:01:35;;;;;;;2.00;1.50;;;;;;;28.10;38.05;101383.27;107542;1251;25367;-49
2023/07/11 09:04:03;;;;;;;3.10;1.80;;;;;;;28.15;37.74;101382.09;107437;1256;23143;-50
2023/07/11 09:06:35;;;;;;;3.30;1.70;;;;;;;28.16;37.37;101382.04;107170;1256;25369;-49
2023/07/11 09:09:04;;;;;;;4.50;1.60;;;;;;;28.15;37.67;101378.35;107079;1262;22598;-50
2023/07/11 09:11:39;;;;;;;2.80;1.80;;;;;;;28.18;37.45;101380.81;107315;1258;23895;-50
2023/07/11 09:14:16;;;;;;;2.10;1.50;;;;;;;28.19;37.75;101380.15;107376;1256;25335;-49
2023/07/11 09:16:53;;;;;;;1.50;1.40;;;;;;;28.21;37.61;101377.50;106878;1264;22517;-49
2023/07/11 09:19:46;;;;;;;1.80;1.50;;;;;;;28.25;38.11;101376.99;107215;1267;22520;-51
2023/07/11 09:22:32;;;;;;;2.00;1.40;;;;;;;28.34;38.31;101373.48;106673;1258;25338;-50
2023/07/11 09:25:10;;;;;;;1.80;1.70;;;;;;;28.44;38.19;101373.69;106674;1266;25422;-50
2023/07/11 09:27:42;;;;;;;2.20;1.60;;;;;;;28.53;37.48;101373.62;106801;1263;25376;-49
2023/07/11 09:30:37;;;;;;;2.30;1.80;;;;;;;28.57;37.13;101372.02;107263;1254;236582;-48
2023/07/11 09:33:15;;;;;;;2.70;1.60;;;;;;;28.60;37.84;101364.80;107269;1255;22530;-49
2023/07/11 09:35:44;;;;;;;3.60;1.70;;;;;;;28.66;37.82;101363.89;107568;1254;22568;-49
2023/07/11 09:38:24;;;;;;;1.80;1.50;;;;;;;28.73;36.44;101360.23;107375;1255;23178;-49
2023/07/11 09:40:57;;;;;;;1.50;1.30;;;;;;;28.80;35.77;101363.52;107264;1252;22808;-49
2023/07/11 09:43:24;;;;;;;4.60;1.90;;;;;;;28.83;35.34;101367.40;107461;1254;22540;-48
2023/07/11 09:45:51;;;;;;;3.20;1.60;;;;;;;28.82;35.51;101365.73;107329;1256;25365;-48
2023/07/11 09:48:34;;;;;;;1.60;1.50;;;;;;;28.79;35.63;101360.80;107535;1255;25409;-48
2023/07/11 09:51:28;;;;;;;3.10;1.50;;;;;;;28.73;35.36;101359.70;107286;1254;25287;-48
2023/07/11 09:53:56;;;;;;;4.00;1.60;;;;;;;28.68;34.87;101357.19;107348;1260;22524;-49
2023/07/11 09:56:26;;;;;;;2.20;1.50;;;;;;;28.66;34.62;101355.92;107065;1256;25460;-50
2023/07/11 09:58:57;;;;;;;1.70;1.50;;;;;;;28.67;34.69;101354.73;106879;1260;24289;-49
2023/07/11 10:01:25;;;;;;;2.90;1.30;;;;;;;28.70;35.51;101345.52;106677;1267;25495;-49
2023/07/11 10:03:55;;;;;;;1.80;1.20;;;;;;;28.79;35.29;101348.98;106782;1259;25425;-50
2023/07/11 10:06:34;;;;;;;1.20;1.20;;;;;;;28.88;34.59;101343.91;107335;1265;22528;-50
2023/07/11 10:09:23;;;;;;;1.90;1.50;;;;;;;28.97;34.69;101342.05;107194;1250;25447;-50
2023/07/11 10:11:52;;;;;;;1.60;1.40;;;;;;;29.06;35.10;101339.83;106879;1266;25355;-49
2023/07/11 10:14:21;;;;;;;2.90;1.70;;;;;;;29.14;34.75;101336.77;107255;1255;24239;-50
2023/07/11 10:16:48;;;;;;;2.40;1.50;;;;;;;29.22;33.99;101338.23;107212;1256;25485;-50
2023/07/11 10:19:17;;;;;;;1.80;1.40;;;;;;;29.26;33.71;101338.20;107394;1256;22646;-50
2023/07/11 10:21:46;;;;;;;3.10;1.80;;;;;;;29.33;33.74;101338.29;107211;1256;25351;-50
2023/07/11 10:24:21;;;;;;;3.00;1.40;;;;;;;29.41;33.94;101335.73;107520;1255;26523;-49
2023/07/11 10:26:51;;;;;;;1.60;1.50;;;;;;;29.50;33.93;101337.61;107246;1256;25347;-49
2023/07/11 10:29:19;;;;;;;4.00;1.50;;;;;;;29.58;33.18;101332.32;107235;1262;22645;-50
2023/07/11 10:32:02;;;;;;;4.60;1.60;;;;;;;29.64;32.48;101327.52;107566;1256;25348;-51
2023/07/11 10:34:55;;;;;;;1.30;1.20;;;;;;;29.65;33.16;101325.64;107680;1256;23907;-49
2023/07/11 10:37:32;;;;;;;1.90;1.70;;;;;;;29.65;33.91;101328.13;107224;1265;23420;-49
2023/07/11 10:40:05;;;;;;;1.60;1.30;;;;;;;29.66;33.90;101321.91;106749;1261;25404;-49
2023/07/11 10:42:40;;;;;;;1.70;1.10;;;;;;;29.68;32.50;101320.09;106517;1264;23334;-51
2023/07/11 10:45:08;;;;;;;3.00;2.00;;;;;;;29.65;32.56;101320.21;106918;1257;25400;-51
2023/07/11 10:48:00;;;;;;;4.80;1.20;;;;;;;29.60;32.01;101321.94;106941;1259;24014;-50
2023/07/11 10:50:30;;;;;;;4.90;1.30;;;;;;;29.61;31.85;101325.45;106282;1273;24386;-51
2023/07/11 10:53:00;;;;;;;3.70;1.70;;;;;;;29.65;32.44;101331.30;106114;1265;25284;-51
2023/07/11 10:55:32;;;;;;;2.30;1.50;;;;;;;29.71;32.83;101342.92;106575;1272;22601;-51
2023/07/11 10:58:00;;;;;;;2.90;1.40;;;;;;;29.74;33.27;101338.89;106423;1276;22543;-50
2023/07/11 11:00:43;;;;;;;1.70;1.50;;;;;;;29.77;34.20;101338.10;106291;1272;24210;-51
2023/07/11 11:03:19;;;;;;;1.40;1.30;;;;;;;29.80;35.44;101336.08;106143;1275;25510;-50
2023/07/11 11:05:55;;;;;;;1.90;1.40;;;;;;;29.84;35.19;101333.70;106443;1271;22591;-50
2023/07/11 11:08:32;;;;;;;4.20;2.00;;;;;;;29.92;34.39;101333.88;106590;1272;22673;-51
2023/07/11 11:11:25;;;;;;;2.40;1.60;;;;;;;30.03;33.18;101342.61;106461;1272;25431;-50
2023/07/11 11:14:18;;;;;;;2.00;1.50;;;;;;;30.15;32.78;101345.23;106315;1273;25479;-51
2023/07/11 11:17:20;;;;;;;2.40;1.60;;;;;;;30.24;32.84;101347.89;106676;1264;26503;-51
2023/07/11 11:19:57;;;;;;;1.30;1.20;;;;;;;30.35;32.39;101346.54;107353;1262;22536;-51
2023/07/11 11:22:41;;;;;;;2.90;1.50;;;;;;;30.44;31.77;101343.67;106685;1261;23384;-48
2023/07/11 11:25:45;;;;;;;2.70;1.80;;;;;;;30.50;31.91;101342.02;106382;1262;25812;-48
2023/07/11 11:28:24;;;;;;;3.20;1.30;;;;;;;30.55;31.92;101342.65;106577;1272;24216;-49
2023/07/11 11:31:06;;;;;;;2.00;1.50;;;;;;;30.56;31.86;101342.96;107065;1268;25466;-49